Terminal Aerodrome Forecast
Issued by NWS Portland, OR

Home | Current Version | Previous Version | Text Only | Print | Product List | Glossary On
Versions: 1 2 3 4 5 6 7 8 9 10 11 12 13 14 15 16 17 18 19 20 21 22 23 24 25 26 27 28
000
FTUS46 KPQR 241610 AAA
TAFAST
TAF AMD
KAST 241610Z 2416/2512 VRB03KT P6SM -SHRA BKN035 OVC050
      TEMPO 2416/2418 3SM -SHRASN BKN015
     FM242000 10007KT P6SM -SHRAGS SCT025 BKN050
     FM250200 08005KT P6SM SCT035 BKN060=

USA.gov is the U.S. government's official web portal to all federal, state and local government web resources and services.